createdAt,value
2018-03-29T00:01:44.252Z,93.90
2018-03-29T00:04:16.171Z,94.40
2018-03-29T00:06:48.814Z,94.30
2018-03-29T00:09:20.712Z,94.20
2018-03-29T00:11:53.368Z,94.10
2018-03-29T00:14:25.311Z,94.10
2018-03-29T00:16:57.159Z,94.20
2018-03-29T00:19:29.077Z,93.90
2018-03-29T00:22:01.732Z,93.80
2018-03-29T00:24:33.645Z,93.80
2018-03-29T00:27:05.523Z,93.80
2018-03-29T00:29:37.444Z,93.60
2018-03-29T00:32:09.325Z,93.70
2018-03-29T00:34:41.241Z,93.70
2018-03-29T00:37:13.114Z,93.60
2018-03-29T00:39:45.827Z,93.70
2018-03-29T00:42:17.708Z,93.70
2018-03-29T00:44:49.940Z,93.50
2018-03-29T00:47:22.105Z,93.70
2018-03-29T00:49:54.016Z,93.90
2018-03-29T00:52:26.130Z,94.00
2018-03-29T00:54:58.040Z,94.00
2018-03-29T00:57:29.915Z,94.20
2018-03-29T01:00:02.613Z,94.30
2018-03-29T01:02:35.253Z,94.00
2018-03-29T01:05:07.472Z,94.00
2018-03-29T01:07:39.348Z,94.00
2018-03-29T01:10:11.269Z,94.10
2018-03-29T01:12:43.922Z,94.20
2018-03-29T01:15:16.147Z,94.00
2018-03-29T01:17:48.027Z,94.20
2018-03-29T01:20:19.936Z,94.10
2018-03-29T01:22:52.588Z,93.80
2018-03-29T01:25:24.808Z,93.80
2018-03-29T01:27:56.692Z,94.00
2018-03-29T01:30:28.600Z,94.00
2018-03-29T01:33:00.485Z,93.60
2018-03-29T01:35:32.392Z,93.70
2018-03-29T01:38:04.278Z,93.50
2018-03-29T01:40:36.196Z,93.60
2018-03-29T01:43:08.074Z,93.90
2018-03-29T01:45:39.984Z,93.30
2018-03-29T01:48:12.664Z,93.60
2018-03-29T01:50:45.362Z,93.30
2018-03-29T01:53:17.283Z,93.30
2018-03-29T01:55:50.295Z,93.30
2018-03-29T01:58:22.183Z,93.30
2018-03-29T02:00:54.092Z,93.50
2018-03-29T02:03:26.743Z,93.70
2018-03-29T02:05:58.718Z,93.60
2018-03-29T02:08:30.597Z,93.60
2018-03-29T02:11:03.276Z,93.60
2018-03-29T02:13:35.920Z,93.30
2018-03-29T02:16:07.840Z,93.30
2018-03-29T02:18:39.726Z,93.30
2018-03-29T02:21:11.639Z,93.20
2018-03-29T02:23:44.275Z,93.40
2018-03-29T02:26:16.496Z,93.40
2018-03-29T02:28:48.377Z,93.20
2018-03-29T02:31:20.289Z,93.50
2018-03-29T02:33:52.170Z,93.30
2018-03-29T02:36:24.950Z,93.30
2018-03-29T02:38:57.592Z,93.30
2018-03-29T02:41:29.496Z,93.30
2018-03-29T02:44:01.389Z,93.50
2018-03-29T02:46:33.276Z,93.60
2018-03-29T02:49:05.154Z,93.60
2018-03-29T02:51:37.360Z,93.40
2018-03-29T02:54:09.240Z,93.00
2018-03-29T02:56:41.168Z,93.00
2018-03-29T02:59:13.058Z,93.20
2018-03-29T03:01:44.997Z,92.80
2018-03-29T03:04:16.882Z,92.60
2018-03-29T03:06:48.800Z,92.70
2018-03-29T03:09:21.445Z,92.60
2018-03-29T03:11:53.362Z,92.60
2018-03-29T03:14:25.517Z,92.40
2018-03-29T03:16:57.404Z,92.00
2018-03-29T03:19:29.544Z,92.20
2018-03-29T03:22:01.440Z,92.40
2018-03-29T03:24:33.323Z,92.30
2018-03-29T03:27:05.227Z,92.10
2018-03-29T03:29:37.103Z,91.90
2018-03-29T03:32:09.251Z,92.00
2018-03-29T03:34:41.141Z,91.80
2018-03-29T03:37:13.049Z,91.80
2018-03-29T03:39:45.953Z,91.80
2018-03-29T03:42:17.856Z,91.80
2018-03-29T03:44:49.744Z,92.00
2018-03-29T03:47:21.633Z,91.60
2018-03-29T03:49:53.519Z,91.70
2018-03-29T03:52:25.657Z,91.60
2018-03-29T03:54:57.540Z,91.60
2018-03-29T03:57:29.684Z,91.90
2018-03-29T04:00:01.574Z,91.90
2018-03-29T04:02:33.476Z,92.00
2018-03-29T04:05:05.362Z,91.70
2018-03-29T04:07:38.352Z,91.90
2018-03-29T04:10:10.229Z,91.90
2018-03-29T04:12:42.140Z,91.70
2018-03-29T04:15:14.033Z,91.80
2018-03-29T04:17:45.944Z,91.40
2018-03-29T04:20:17.840Z,91.70
2018-03-29T04:22:50.521Z,92.10
2018-03-29T04:25:23.168Z,92.30
2018-03-29T04:27:55.081Z,92.30
2018-03-29T04:30:27.235Z,91.70
2018-03-29T04:32:59.405Z,91.80
2018-03-29T04:35:31.294Z,91.70
2018-03-29T04:38:03.428Z,91.70
2018-03-29T04:40:35.310Z,91.70
2018-03-29T04:43:07.452Z,92.00
2018-03-29T04:45:39.329Z,91.90
2018-03-29T04:48:11.245Z,92.10
2018-03-29T04:50:43.120Z,92.20
2018-03-29T04:53:15.800Z,91.80
2018-03-29T04:55:48.476Z,92.10
2018-03-29T04:58:21.154Z,91.90
2018-03-29T05:00:53.817Z,91.80
2018-03-29T05:03:25.736Z,91.80
2018-03-29T05:05:57.624Z,92.00
2018-03-29T05:08:29.548Z,92.00
2018-03-29T05:11:01.438Z,92.10
2018-03-29T05:13:33.364Z,92.00
2018-03-29T05:16:05.257Z,92.20
2018-03-29T05:18:37.170Z,91.90
2018-03-29T05:21:09.060Z,91.80
2018-03-29T05:23:40.976Z,91.90
2018-03-29T05:26:13.629Z,92.10
2018-03-29T05:28:45.561Z,92.10
2018-03-29T05:31:17.440Z,91.80
2018-03-29T05:33:49.389Z,91.60
2018-03-29T05:36:21.272Z,92.00
2018-03-29T05:38:53.248Z,91.70
2018-03-29T05:41:25.139Z,92.10
2018-03-29T05:43:57.068Z,92.00
2018-03-29T05:46:28.989Z,92.00
2018-03-29T05:49:00.901Z,92.10
2018-03-29T05:51:33.552Z,91.40
2018-03-29T05:54:05.478Z,91.40
2018-03-29T05:56:37.356Z,91.60
2018-03-29T05:59:09.273Z,91.30
2018-03-29T06:01:41.920Z,90.70
2018-03-29T06:04:13.822Z,90.70
2018-03-29T06:06:45.709Z,90.80
2018-03-29T06:09:17.620Z,90.90
2018-03-29T06:11:50.262Z,90.70
2018-03-29T06:14:22.175Z,90.60
2018-03-29T06:16:55.064Z,90.30
2018-03-29T06:19:26.968Z,90.30
2018-03-29T06:21:58.864Z,90.80
2018-03-29T06:24:31.769Z,90.60
2018-03-29T06:27:03.668Z,90.60
2018-03-29T06:29:35.580Z,90.40
2018-03-29T06:32:08.221Z,90.10
2018-03-29T06:34:40.226Z,90.10
2018-03-29T06:37:12.108Z,90.20
2018-03-29T06:39:44.024Z,90.40
2018-03-29T06:42:16.669Z,90.30
2018-03-29T06:44:48.568Z,90.00
2018-03-29T06:47:21.218Z,88.40
2018-03-29T06:49:53.130Z,88.40
2018-03-29T06:52:25.013Z,88.60
2018-03-29T06:54:56.908Z,88.70
2018-03-29T06:57:28.801Z,88.30
2018-03-29T07:00:01.486Z,87.10
2018-03-29T07:02:33.364Z,87.10
2018-03-29T07:05:05.277Z,87.40
2018-03-29T07:07:37.152Z,86.50
2018-03-29T07:10:09.828Z,85.60
2018-03-29T07:12:41.723Z,85.50
2018-03-29T07:15:13.637Z,84.40
2018-03-29T07:17:45.512Z,84.90
2018-03-29T07:20:18.191Z,85.00
2018-03-29T07:22:50.831Z,84.70
2018-03-29T07:25:22.752Z,84.60
2018-03-29T07:27:54.636Z,85.80
2018-03-29T07:30:26.875Z,85.50
2018-03-29T07:32:59.037Z,85.30
2018-03-29T07:35:30.931Z,85.20
2018-03-29T07:38:02.807Z,84.30
2018-03-29T07:40:34.713Z,84.80
2018-03-29T07:43:07.356Z,85.10
2018-03-29T07:45:39.270Z,85.10
2018-03-29T07:48:11.817Z,85.30
2018-03-29T07:50:44.563Z,84.30
2018-03-29T07:53:16.490Z,84.30
2018-03-29T07:55:49.133Z,83.20
2018-03-29T07:58:22.045Z,82.90
2018-03-29T08:00:53.948Z,82.80
2018-03-29T08:03:25.850Z,83.40
2018-03-29T08:05:58.554Z,83.90
2018-03-29T08:08:30.703Z,84.50
2018-03-29T08:11:02.616Z,83.70
2018-03-29T08:13:34.878Z,82.80
2018-03-29T08:16:06.832Z,83.50
2018-03-29T08:18:38.718Z,82.80
2018-03-29T08:21:10.855Z,82.70
2018-03-29T08:23:42.779Z,83.40
2018-03-29T08:26:14.691Z,83.30
2018-03-29T08:28:46.589Z,82.10
2018-03-29T08:31:19.488Z,81.90
2018-03-29T08:33:51.366Z,81.90
2018-03-29T08:36:23.281Z,81.00
2018-03-29T08:38:55.152Z,81.80
2018-03-29T08:41:27.819Z,81.00
2018-03-29T08:44:00.729Z,81.10
2018-03-29T08:46:32.649Z,81.00
2018-03-29T08:49:04.534Z,81.10
2018-03-29T08:51:37.223Z,82.60
2018-03-29T08:54:10.113Z,82.60
2018-03-29T08:56:42.019Z,82.00
2018-03-29T08:59:13.960Z,82.20
2018-03-29T09:01:46.204Z,83.30
2018-03-29T09:04:18.092Z,83.80
2018-03-29T09:06:49.989Z,83.50
2018-03-29T09:09:21.869Z,83.30
2018-03-29T09:11:54.564Z,81.40
2018-03-29T09:14:26.440Z,81.40
2018-03-29T09:16:58.368Z,81.20
2018-03-29T09:19:31.013Z,81.40
2018-03-29T09:22:02.934Z,81.40
2018-03-29T09:24:34.824Z,81.30
2018-03-29T09:27:06.729Z,81.60
2018-03-29T09:29:39.379Z,81.70
2018-03-29T09:32:11.286Z,81.70
2018-03-29T09:34:43.192Z,81.50
2018-03-29T09:37:15.120Z,80.70
2018-03-29T09:39:46.992Z,81.00
2018-03-29T09:42:18.904Z,81.90
2018-03-29T09:44:51.809Z,80.40
2018-03-29T09:47:23.720Z,80.40
2018-03-29T09:49:55.597Z,80.90
2018-03-29T09:52:27.513Z,79.80
2018-03-29T09:54:59.652Z,80.00
2018-03-29T09:57:31.579Z,79.70
2018-03-29T10:00:03.464Z,78.50
2018-03-29T10:02:36.148Z,75.40
2018-03-29T10:05:08.795Z,73.40
2018-03-29T10:07:40.720Z,73.30
2018-03-29T10:10:12.600Z,73.60
2018-03-29T10:12:44.505Z,72.90
2018-03-29T10:15:17.396Z,72.40
2018-03-29T10:17:49.305Z,72.40
2018-03-29T10:20:21.210Z,70.90
2018-03-29T10:22:53.871Z,71.20
2018-03-29T10:25:25.767Z,71.10
2018-03-29T10:27:57.688Z,70.20
2018-03-29T10:30:29.888Z,70.00
2018-03-29T10:33:01.816Z,70.20
2018-03-29T10:35:33.711Z,71.00
2018-03-29T10:38:05.634Z,69.70
2018-03-29T10:40:38.552Z,69.60
2018-03-29T10:43:10.477Z,69.50
2018-03-29T10:45:42.357Z,69.10
2018-03-29T10:48:15.016Z,70.50
2018-03-29T10:50:47.235Z,70.30
2018-03-29T10:53:19.139Z,69.60
2018-03-29T10:55:51.018Z,69.20
2018-03-29T10:58:23.680Z,70.60
2018-03-29T11:00:55.561Z,70.10
2018-03-29T11:03:28.235Z,68.60
2018-03-29T11:06:00.117Z,68.60
2018-03-29T11:08:32.284Z,66.40
2018-03-29T11:11:04.164Z,67.10
2018-03-29T11:13:36.066Z,67.70
2018-03-29T11:16:07.940Z,68.80
2018-03-29T11:18:40.620Z,66.30
2018-03-29T11:21:13.261Z,65.90
2018-03-29T11:23:45.159Z,65.90
2018-03-29T11:26:17.032Z,66.30
2018-03-29T11:28:49.713Z,65.20
2018-03-29T11:31:22.373Z,65.30
2018-03-29T11:33:54.564Z,65.20
2018-03-29T11:36:26.451Z,66.20
2018-03-29T11:38:58.368Z,65.40
2018-03-29T11:41:31.024Z,64.80
2018-03-29T11:44:02.937Z,64.80
2018-03-29T11:46:34.816Z,64.40
2018-03-29T11:49:06.731Z,63.90
2018-03-29T11:51:39.735Z,65.40
2018-03-29T11:54:11.634Z,65.40
2018-03-29T11:56:43.593Z,65.40
2018-03-29T11:59:15.510Z,65.80
2018-03-29T12:01:48.163Z,62.00
2018-03-29T12:04:20.078Z,61.90
2018-03-29T12:06:52.232Z,62.50
2018-03-29T12:09:24.282Z,62.80
2018-03-29T12:11:56.941Z,63.30
2018-03-29T12:14:29.617Z,59.90
2018-03-29T12:17:01.546Z,59.90
2018-03-29T12:19:33.468Z,55.80
2018-03-29T12:22:05.352Z,56.30
2018-03-29T12:24:37.256Z,55.60
2018-03-29T12:27:09.457Z,58.70
2018-03-29T12:29:41.364Z,60.70
2018-03-29T12:32:13.254Z,65.10
2018-03-29T12:34:46.160Z,70.30
2018-03-29T12:37:18.327Z,70.30
2018-03-29T12:39:50.285Z,70.80
2018-03-29T12:42:22.185Z,71.00
2018-03-29T12:44:54.150Z,72.00
2018-03-29T12:47:26.740Z,71.80
2018-03-29T12:49:58.948Z,71.80
2018-03-29T12:52:31.116Z,72.20
2018-03-29T12:55:14.920Z,72.30
2018-03-29T12:57:58.572Z,74.00
2018-03-29T13:00:31.252Z,73.10
2018-03-29T13:03:03.992Z,73.10
2018-03-29T13:05:35.904Z,71.80
2018-03-29T13:08:08.554Z,71.20
2018-03-29T13:10:40.456Z,71.20
2018-03-29T13:13:12.328Z,71.80
2018-03-29T13:15:44.247Z,72.20
2018-03-29T13:18:16.129Z,71.30
2018-03-29T13:20:48.020Z,72.10
2018-03-29T13:23:19.927Z,71.70
2018-03-29T13:25:51.816Z,70.70
2018-03-29T13:28:23.692Z,71.20
2018-03-29T13:30:55.651Z,71.00
2018-03-29T13:33:28.256Z,71.40
2018-03-29T13:36:00.931Z,70.90
2018-03-29T13:38:32.819Z,71.10
2018-03-29T13:41:05.546Z,69.70
2018-03-29T13:43:37.696Z,69.70
2018-03-29T13:46:09.588Z,69.20
2018-03-29T13:48:41.632Z,68.80
2018-03-29T13:51:13.498Z,68.30
2018-03-29T13:53:45.369Z,67.50
2018-03-29T13:56:17.289Z,68.10
2018-03-29T13:58:49.929Z,66.10
2018-03-29T14:01:22.605Z,65.80
2018-03-29T14:03:54.481Z,67.50
2018-03-29T14:06:26.397Z,65.80
2018-03-29T14:08:58.273Z,62.30
2018-03-29T14:11:30.848Z,61.70
2018-03-29T14:14:02.730Z,63.50
2018-03-29T14:16:34.640Z,62.60
2018-03-29T14:19:06.525Z,63.70
2018-03-29T14:21:38.434Z,66.70
2018-03-29T14:24:11.068Z,70.30
2018-03-29T14:26:42.984Z,70.30
2018-03-29T14:29:15.627Z,67.00
2018-03-29T14:31:48.299Z,66.50
2018-03-29T14:34:20.181Z,66.50
2018-03-29T14:36:52.844Z,65.80
2018-03-29T14:39:24.736Z,65.70
2018-03-29T14:41:57.412Z,64.20
2018-03-29T14:44:30.313Z,63.80
2018-03-29T14:47:02.249Z,63.70
2018-03-29T14:49:34.109Z,65.60
2018-03-29T14:52:06.019Z,63.10
2018-03-29T14:54:37.897Z,63.30
2018-03-29T14:57:10.575Z,63.10
2018-03-29T14:59:42.452Z,62.90
2018-03-29T15:02:14.659Z,62.20
2018-03-29T15:04:46.829Z,61.90
2018-03-29T15:07:19.428Z,61.80
2018-03-29T15:09:51.324Z,62.30
2018-03-29T15:12:23.244Z,61.10
2018-03-29T15:14:55.127Z,61.10
2018-03-29T15:17:27.062Z,62.10
2018-03-29T15:19:58.961Z,61.80
2018-03-29T15:22:30.882Z,61.20
2018-03-29T15:25:02.797Z,61.70
2018-03-29T15:27:34.693Z,62.20
2018-03-29T15:30:07.389Z,62.50
2018-03-29T15:32:39.284Z,60.80
2018-03-29T15:35:11.172Z,59.80
2018-03-29T15:37:44.075Z,60.20
2018-03-29T15:40:15.968Z,59.60
2018-03-29T15:42:47.880Z,59.30
2018-03-29T15:45:20.544Z,59.40
2018-03-29T15:47:52.459Z,59.40
2018-03-29T15:50:24.755Z,58.60
2018-03-29T15:52:56.689Z,57.10
2018-03-29T15:55:28.560Z,57.60
2018-03-29T15:58:00.482Z,59.00
2018-03-29T16:00:33.133Z,59.20
2018-03-29T16:03:05.024Z,59.20
2018-03-29T16:05:36.902Z,58.10
2018-03-29T16:08:08.820Z,58.20
2018-03-29T16:10:40.712Z,58.90
2018-03-29T16:13:12.872Z,58.00
2018-03-29T16:15:44.761Z,56.60
2018-03-29T16:18:16.668Z,56.00
2018-03-29T16:20:49.320Z,56.70
2018-03-29T16:23:21.220Z,56.40
2018-03-29T16:25:53.897Z,55.10
2018-03-29T16:28:26.551Z,55.80
2018-03-29T16:30:58.651Z,55.80
2018-03-29T16:33:30.552Z,55.70
2018-03-29T16:36:02.432Z,55.60
2018-03-29T16:38:34.329Z,54.90
2018-03-29T16:41:06.972Z,54.20
2018-03-29T16:43:38.864Z,54.20
2018-03-29T16:46:11.521Z,53.60
2018-03-29T16:48:43.455Z,53.60
2018-03-29T16:51:15.319Z,53.80
2018-03-29T16:53:47.233Z,52.80
2018-03-29T16:56:19.107Z,52.10
2018-03-29T16:58:51.012Z,53.20
2018-03-29T17:01:22.887Z,53.40
2018-03-29T17:03:55.796Z,55.00
2018-03-29T17:06:27.708Z,54.90
2018-03-29T17:08:59.620Z,55.70
2018-03-29T17:11:31.497Z,56.40
2018-03-29T17:14:03.381Z,56.20
2018-03-29T17:16:35.510Z,55.60
2018-03-29T17:19:07.416Z,56.10
2018-03-29T17:21:39.356Z,56.10
2018-03-29T17:24:11.259Z,57.60
2018-03-29T17:26:43.137Z,58.00
2018-03-29T17:29:16.137Z,59.00
2018-03-29T17:31:48.297Z,59.00
2018-03-29T17:34:20.200Z,59.60
2018-03-29T17:36:52.076Z,59.90
2018-03-29T17:39:23.964Z,60.50
2018-03-29T17:41:57.444Z,61.00
2018-03-29T17:44:29.340Z,61.00
2018-03-29T17:47:01.212Z,61.30
2018-03-29T17:49:33.119Z,61.70
2018-03-29T17:52:04.995Z,62.00
2018-03-29T17:54:37.664Z,61.40
2018-03-29T17:57:09.859Z,61.40
2018-03-29T17:59:42.132Z,60.80
2018-03-29T18:02:14.013Z,61.50
2018-03-29T18:04:45.924Z,61.30
2018-03-29T18:07:17.796Z,61.80
2018-03-29T18:09:50.465Z,62.80
2018-03-29T18:12:22.351Z,62.80
2018-03-29T18:14:55.018Z,63.80
2018-03-29T18:17:27.653Z,63.70
2018-03-29T18:19:59.551Z,63.60
2018-03-29T18:22:32.200Z,63.70
2018-03-29T18:25:04.111Z,63.00
2018-03-29T18:27:35.992Z,64.20
2018-03-29T18:30:07.906Z,64.10
2018-03-29T18:32:40.556Z,65.70
2018-03-29T18:35:12.447Z,65.50
2018-03-29T18:37:45.083Z,67.00
2018-03-29T18:40:16.981Z,66.80
2018-03-29T18:42:48.860Z,67.20
2018-03-29T18:45:21.523Z,69.20
2018-03-29T18:47:54.156Z,70.00
2018-03-29T18:50:26.063Z,70.00
2018-03-29T18:52:58.701Z,71.80
2018-03-29T18:55:30.597Z,71.70
2018-03-29T18:58:03.240Z,73.20
2018-03-29T19:00:35.146Z,72.60
2018-03-29T19:03:07.782Z,73.10
2018-03-29T19:05:40.001Z,73.00
2018-03-29T19:08:11.888Z,73.40
2018-03-29T19:10:43.797Z,74.10
2018-03-29T19:13:15.679Z,73.70
2018-03-29T19:15:48.564Z,74.40
2018-03-29T19:18:20.444Z,75.00
2018-03-29T19:20:52.341Z,74.20
2018-03-29T19:23:24.214Z,74.40
2018-03-29T19:25:56.116Z,74.20
2018-03-29T19:28:28.276Z,74.50
2018-03-29T19:31:00.442Z,74.90
2018-03-29T19:33:32.611Z,75.20
2018-03-29T19:36:04.523Z,75.20
2018-03-29T19:38:36.687Z,75.40
2018-03-29T19:41:08.598Z,75.60
2018-03-29T19:43:40.758Z,75.30
2018-03-29T19:46:12.678Z,75.80
2018-03-29T19:48:44.889Z,76.10
2018-03-29T19:51:16.772Z,76.00
2018-03-29T19:53:48.656Z,76.50
2018-03-29T19:56:20.602Z,76.70
2018-03-29T19:58:52.481Z,77.00
2018-03-29T20:01:24.410Z,77.00
2018-03-29T20:03:56.285Z,77.90
2018-03-29T20:06:28.189Z,77.20
2018-03-29T20:09:01.093Z,77.90
2018-03-29T20:11:32.999Z,77.80
2018-03-29T20:14:04.868Z,77.60
2018-03-29T20:16:36.757Z,78.00
2018-03-29T20:19:09.408Z,78.00
2018-03-29T20:21:41.316Z,77.90
2018-03-29T20:24:13.197Z,77.80
2018-03-29T20:26:45.089Z,78.50
2018-03-29T20:29:16.959Z,78.40
2018-03-29T20:31:48.862Z,79.00
2018-03-29T20:34:20.751Z,79.70
2018-03-29T20:36:52.661Z,79.40
2018-03-29T20:39:25.299Z,79.60
2018-03-29T20:41:57.520Z,79.60
2018-03-29T20:44:29.685Z,79.80
2018-03-29T20:47:01.589Z,80.10
2018-03-29T20:49:33.463Z,79.60
2018-03-29T20:52:05.676Z,79.30
2018-03-29T20:54:37.568Z,79.60
2018-03-29T20:57:09.461Z,80.10
2018-03-29T20:59:41.337Z,80.00
2018-03-29T21:02:14.021Z,80.40
2018-03-29T21:04:46.915Z,80.60
2018-03-29T21:07:18.813Z,80.50
